sensor_id;sensor_type;location;lat;lon;timestamp;temperature;humidity
70695;DHT22;58269;52.246;21.104;2022-12-10T00:01:28;7.22;60.37
70695;DHT22;58269;52.246;21.104;2022-12-10T00:03:31;7.26;60.33
70695;DHT22;58269;52.246;21.104;2022-12-10T00:05:36;7.29;60.23
70695;DHT22;58269;52.246;21.104;2022-12-10T00:07:37;7.29;60.25
70695;DHT22;58269;52.246;21.104;2022-12-10T00:09:38;7.33;60.26
70695;DHT22;58269;52.246;21.104;2022-12-10T00:11:40;7.33;60.09
70695;DHT22;58269;52.246;21.104;2022-12-10T00:13:42;7.34;59.97
70695;DHT22;58269;52.246;21.104;2022-12-10T00:15:44;7.33;59.75
70695;DHT22;58269;52.246;21.104;2022-12-10T00:17:45;7.26;59.67
70695;DHT22;58269;52.246;21.104;2022-12-10T00:19:46;7.19;59.57
70695;DHT22;58269;52.246;21.104;2022-12-10T00:21:47;7.17;59.74
70695;DHT22;58269;52.246;21.104;2022-12-10T00:23:48;7.19;59.71
70695;DHT22;58269;52.246;21.104;2022-12-10T00:25:50;7.14;59.78
70695;DHT22;58269;52.246;21.104;2022-12-10T00:27:51;7.13;59.87
70695;DHT22;58269;52.246;21.104;2022-12-10T00:29:52;7.16;60.20
70695;DHT22;58269;52.246;21.104;2022-12-10T00:31:54;7.19;59.98
70695;DHT22;58269;52.246;21.104;2022-12-10T00:33:59;7.16;60.05
70695;DHT22;58269;52.246;21.104;2022-12-10T00:36:03;7.26;60.31
70695;DHT22;58269;52.246;21.104;2022-12-10T00:38:04;7.38;60.26
70695;DHT22;58269;52.246;21.104;2022-12-10T00:40:07;7.34;60.10
70695;DHT22;58269;52.246;21.104;2022-12-10T00:42:08;7.31;59.89
70695;DHT22;58269;52.246;21.104;2022-12-10T00:44:09;7.31;59.94
70695;DHT22;58269;52.246;21.104;2022-12-10T00:46:13;7.30;60.04
70695;DHT22;58269;52.246;21.104;2022-12-10T00:48:15;7.34;59.78
70695;DHT22;58269;52.246;21.104;2022-12-10T00:50:16;7.33;59.76
70695;DHT22;58269;52.246;21.104;2022-12-10T00:52:17;7.30;59.75
70695;DHT22;58269;52.246;21.104;2022-12-10T00:54:19;7.34;59.80
70695;DHT22;58269;52.246;21.104;2022-12-10T00:56:23;7.33;59.75
70695;DHT22;58269;52.246;21.104;2022-12-10T00:58:26;7.35;59.90
70695;DHT22;58269;52.246;21.104;2022-12-10T01:00:29;7.37;59.83
70695;DHT22;58269;52.246;21.104;2022-12-10T01:02:30;7.34;59.65
70695;DHT22;58269;52.246;21.104;2022-12-10T01:04:31;7.33;59.72
70695;DHT22;58269;52.246;21.104;2022-12-10T01:06:52;7.30;59.48
70695;DHT22;58269;52.246;21.104;2022-12-10T01:08:51;7.34;59.95
70695;DHT22;58269;52.246;21.104;2022-12-10T01:10:53;7.41;59.94
70695;DHT22;58269;52.246;21.104;2022-12-10T01:12:54;7.44;59.83
70695;DHT22;58269;52.246;21.104;2022-12-10T01:14:57;7.50;59.89
70695;DHT22;58269;52.246;21.104;2022-12-10T01:17:01;7.50;59.53
70695;DHT22;58269;52.246;21.104;2022-12-10T01:19:05;7.45;59.39
70695;DHT22;58269;52.246;21.104;2022-12-10T01:21:13;7.31;58.37
70695;DHT22;58269;52.246;21.104;2022-12-10T01:23:15;6.79;57.97
70695;DHT22;58269;52.246;21.104;2022-12-10T01:25:17;6.28;58.24
70695;DHT22;58269;52.246;21.104;2022-12-10T01:27:18;5.86;57.77
70695;DHT22;58269;52.246;21.104;2022-12-10T01:29:19;5.53;58.01
70695;DHT22;58269;52.246;21.104;2022-12-10T01:31:27;5.19;58.58
70695;DHT22;58269;52.246;21.104;2022-12-10T01:33:24;5.29;61.22
70695;DHT22;58269;52.246;21.104;2022-12-10T01:35:25;5.38;61.28
70695;DHT22;58269;52.246;21.104;2022-12-10T01:37:26;5.12;60.10
70695;DHT22;58269;52.246;21.104;2022-12-10T01:39:28;5.25;62.44
70695;DHT22;58269;52.246;21.104;2022-12-10T01:41:33;5.53;63.43
70695;DHT22;58269;52.246;21.104;2022-12-10T01:45:55;6.13;63.89
70695;DHT22;58269;52.246;21.104;2022-12-10T01:47:56;6.27;63.51
70695;DHT22;58269;52.246;21.104;2022-12-10T01:49:59;6.37;63.19
70695;DHT22;58269;52.246;21.104;2022-12-10T01:52:03;6.44;62.99
70695;DHT22;58269;52.246;21.104;2022-12-10T01:54:08;6.55;62.65
70695;DHT22;58269;52.246;21.104;2022-12-10T01:56:10;6.65;62.72
70695;DHT22;58269;52.246;21.104;2022-12-10T01:58:13;6.75;62.75
70695;DHT22;58269;52.246;21.104;2022-12-10T02:00:16;6.79;62.11
70695;DHT22;58269;52.246;21.104;2022-12-10T02:02:46;6.76;61.63
70695;DHT22;58269;52.246;21.104;2022-12-10T02:04:32;6.73;61.44
70695;DHT22;58269;52.246;21.104;2022-12-10T02:09:09;6.76;61.30
70695;DHT22;58269;52.246;21.104;2022-12-10T02:11:14;6.81;61.33
70695;DHT22;58269;52.246;21.104;2022-12-10T02:13:27;6.79;61.26
70695;DHT22;58269;52.246;21.104;2022-12-10T02:15:34;6.82;61.29
70695;DHT22;58269;52.246;21.104;2022-12-10T02:17:52;6.86;61.25
70695;DHT22;58269;52.246;21.104;2022-12-10T02:20:03;6.88;61.07
70695;DHT22;58269;52.246;21.104;2022-12-10T02:22:04;6.88;60.95
70695;DHT22;58269;52.246;21.104;2022-12-10T02:24:12;6.86;60.96
70695;DHT22;58269;52.246;21.104;2022-12-10T02:26:35;6.88;60.96
70695;DHT22;58269;52.246;21.104;2022-12-10T02:30:59;6.99;61.04
70695;DHT22;58269;52.246;21.104;2022-12-10T02:33:01;7.03;60.85
70695;DHT22;58269;52.246;21.104;2022-12-10T02:35:07;7.07;60.75
70695;DHT22;58269;52.246;21.104;2022-12-10T02:37:15;7.06;60.78
70695;DHT22;58269;52.246;21.104;2022-12-10T02:39:20;7.10;60.59
70695;DHT22;58269;52.246;21.104;2022-12-10T02:41:35;7.13;60.69
70695;DHT22;58269;52.246;21.104;2022-12-10T02:43:38;7.20;60.82
70695;DHT22;58269;52.246;21.104;2022-12-10T02:45:39;7.27;60.90
70695;DHT22;58269;52.246;21.104;2022-12-10T02:47:42;7.31;60.66
70695;DHT22;58269;52.246;21.104;2022-12-10T02:49:45;7.31;60.32
70695;DHT22;58269;52.246;21.104;2022-12-10T02:51:48;7.35;60.60
70695;DHT22;58269;52.246;21.104;2022-12-10T02:54:01;7.41;60.42
70695;DHT22;58269;52.246;21.104;2022-12-10T02:56:19;7.43;59.91
70695;DHT22;58269;52.246;21.104;2022-12-10T03:00:27;7.53;60.16
70695;DHT22;58269;52.246;21.104;2022-12-10T03:05:00;7.65;59.93
70695;DHT22;58269;52.246;21.104;2022-12-10T03:07:05;7.66;59.69
70695;DHT22;58269;52.246;21.104;2022-12-10T03:09:17;7.69;59.82
70695;DHT22;58269;52.246;21.104;2022-12-10T03:11:23;7.66;59.65
70695;DHT22;58269;52.246;21.104;2022-12-10T03:13:31;7.68;59.11
70695;DHT22;58269;52.246;21.104;2022-12-10T03:15:34;7.27;56.71
70695;DHT22;58269;52.246;21.104;2022-12-10T03:17:37;6.61;55.71
70695;DHT22;58269;52.246;21.104;2022-12-10T03:19:41;6.06;57.54
70695;DHT22;58269;52.246;21.104;2022-12-10T03:21:43;5.62;58.16
70695;DHT22;58269;52.246;21.104;2022-12-10T03:23:46;5.25;58.09
70695;DHT22;58269;52.246;21.104;2022-12-10T03:25:49;5.21;60.99
70695;DHT22;58269;52.246;21.104;2022-12-10T03:27:54;5.43;60.95
70695;DHT22;58269;52.246;21.104;2022-12-10T03:29:56;5.19;60.11
70695;DHT22;58269;52.246;21.104;2022-12-10T03:31:59;5.21;62.72
70695;DHT22;58269;52.246;21.104;2022-12-10T03:34:02;5.58;63.58
70695;DHT22;58269;52.246;21.104;2022-12-10T03:36:05;5.86;63.65
70695;DHT22;58269;52.246;21.104;2022-12-10T03:38:07;6.03;63.48
70695;DHT22;58269;52.246;21.104;2022-12-10T03:40:10;6.16;63.21
70695;DHT22;58269;52.246;21.104;2022-12-10T03:42:11;6.27;63.21
70695;DHT22;58269;52.246;21.104;2022-12-10T03:44:13;6.44;63.07
70695;DHT22;58269;52.246;21.104;2022-12-10T03:46:14;6.55;62.68
70695;DHT22;58269;52.246;21.104;2022-12-10T03:48:15;6.62;62.57
70695;DHT22;58269;52.246;21.104;2022-12-10T03:50:17;6.75;62.32
70695;DHT22;58269;52.246;21.104;2022-12-10T03:52:18;6.83;62.32
70695;DHT22;58269;52.246;21.104;2022-12-10T03:54:20;6.85;61.88
70695;DHT22;58269;52.246;21.104;2022-12-10T03:56:22;6.93;61.90
70695;DHT22;58269;52.246;21.104;2022-12-10T03:58:23;7.04;61.86
70695;DHT22;58269;52.246;21.104;2022-12-10T04:00:24;7.10;61.45
70695;DHT22;58269;52.246;21.104;2022-12-10T04:02:25;7.13;61.23
70695;DHT22;58269;52.246;21.104;2022-12-10T04:04:27;7.17;61.21
70695;DHT22;58269;52.246;21.104;2022-12-10T04:06:28;7.19;61.21
70695;DHT22;58269;52.246;21.104;2022-12-10T04:08:29;7.24;61.00
70695;DHT22;58269;52.246;21.104;2022-12-10T04:10:34;7.22;60.51
70695;DHT22;58269;52.246;21.104;2022-12-10T04:12:34;7.26;60.56
70695;DHT22;58269;52.246;21.104;2022-12-10T04:14:35;7.30;60.46
70695;DHT22;58269;52.246;21.104;2022-12-10T04:16:55;7.31;60.32
70695;DHT22;58269;52.246;21.104;2022-12-10T04:18:58;7.33;60.17
70695;DHT22;58269;52.246;21.104;2022-12-10T04:21:00;7.34;60.27
70695;DHT22;58269;52.246;21.104;2022-12-10T04:23:20;7.40;60.12
70695;DHT22;58269;52.246;21.104;2022-12-10T04:25:39;7.38;59.78
70695;DHT22;58269;52.246;21.104;2022-12-10T04:27:59;7.41;59.37
70695;DHT22;58269;52.246;21.104;2022-12-10T04:30:01;7.10;57.84
70695;DHT22;58269;52.246;21.104;2022-12-10T04:32:02;6.52;57.55
70695;DHT22;58269;52.246;21.104;2022-12-10T04:34:03;6.03;58.12
70695;DHT22;58269;52.246;21.104;2022-12-10T04:36:05;5.62;58.00
70695;DHT22;58269;52.246;21.104;2022-12-10T04:38:06;5.27;58.19
70695;DHT22;58269;52.246;21.104;2022-12-10T04:40:08;5.15;60.85
70695;DHT22;58269;52.246;21.104;2022-12-10T04:42:10;5.38;62.79
70695;DHT22;58269;52.246;21.104;2022-12-10T04:44:12;5.66;63.08
70695;DHT22;58269;52.246;21.104;2022-12-10T04:46:13;5.85;63.08
70695;DHT22;58269;52.246;21.104;2022-12-10T04:48:15;6.00;63.05
70695;DHT22;58269;52.246;21.104;2022-12-10T04:50:16;6.16;62.97
70695;DHT22;58269;52.246;21.104;2022-12-10T04:52:17;6.28;62.69
70695;DHT22;58269;52.246;21.104;2022-12-10T04:54:19;6.32;62.58
70695;DHT22;58269;52.246;21.104;2022-12-10T04:56:20;6.42;62.62
70695;DHT22;58269;52.246;21.104;2022-12-10T04:58:22;6.48;62.34
70695;DHT22;58269;52.246;21.104;2022-12-10T05:00:24;6.51;62.11
70695;DHT22;58269;52.246;21.104;2022-12-10T05:02:25;6.51;62.04
70695;DHT22;58269;52.246;21.104;2022-12-10T05:04:27;6.55;61.95
70695;DHT22;58269;52.246;21.104;2022-12-10T05:06:28;6.64;61.94
70695;DHT22;58269;52.246;21.104;2022-12-10T05:08:29;6.68;61.70
70695;DHT22;58269;52.246;21.104;2022-12-10T05:10:33;6.76;61.70
70695;DHT22;58269;52.246;21.104;2022-12-10T05:12:34;6.81;61.42
70695;DHT22;58269;52.246;21.104;2022-12-10T05:14:35;6.83;61.30
70695;DHT22;58269;52.246;21.104;2022-12-10T05:16:37;6.82;61.25
70695;DHT22;58269;52.246;21.104;2022-12-10T05:18:38;6.88;61.11
70695;DHT22;58269;52.246;21.104;2022-12-10T05:20:39;6.91;60.95
70695;DHT22;58269;52.246;21.104;2022-12-10T05:22:40;6.91;60.96
70695;DHT22;58269;52.246;21.104;2022-12-10T05:25:00;6.96;60.99
70695;DHT22;58269;52.246;21.104;2022-12-10T05:27:01;7.03;61.09
70695;DHT22;58269;52.246;21.104;2022-12-10T05:29:02;7.09;60.68
70695;DHT22;58269;52.246;21.104;2022-12-10T05:31:04;7.12;60.73
70695;DHT22;58269;52.246;21.104;2022-12-10T05:33:05;7.12;60.42
70695;DHT22;58269;52.246;21.104;2022-12-10T05:35:07;7.10;60.36
70695;DHT22;58269;52.246;21.104;2022-12-10T05:37:08;7.04;60.01
70695;DHT22;58269;52.246;21.104;2022-12-10T05:39:10;7.02;60.15
70695;DHT22;58269;52.246;21.104;2022-12-10T05:43:16;7.00;60.27
70695;DHT22;58269;52.246;21.104;2022-12-10T05:45:17;6.99;60.13
70695;DHT22;58269;52.246;21.104;2022-12-10T05:47:18;6.96;59.98
70695;DHT22;58269;52.246;21.104;2022-12-10T05:49:20;6.96;60.11
70695;DHT22;58269;52.246;21.104;2022-12-10T05:51:24;6.95;60.20
70695;DHT22;58269;52.246;21.104;2022-12-10T05:53:25;6.96;60.15
70695;DHT22;58269;52.246;21.104;2022-12-10T05:55:26;6.99;60.21
70695;DHT22;58269;52.246;21.104;2022-12-10T05:57:29;6.98;60.16
70695;DHT22;58269;52.246;21.104;2022-12-10T05:59:30;7.00;60.32
70695;DHT22;58269;52.246;21.104;2022-12-10T06:01:33;7.00;60.36
70695;DHT22;58269;52.246;21.104;2022-12-10T06:03:35;7.09;60.38
70695;DHT22;58269;52.246;21.104;2022-12-10T06:05:38;7.12;60.45
70695;DHT22;58269;52.246;21.104;2022-12-10T06:07:39;7.16;60.14
70695;DHT22;58269;52.246;21.104;2022-12-10T06:09:40;7.14;60.00
70695;DHT22;58269;52.246;21.104;2022-12-10T06:11:41;7.12;59.78
70695;DHT22;58269;52.246;21.104;2022-12-10T06:13:43;7.13;59.91
70695;DHT22;58269;52.246;21.104;2022-12-10T06:15:44;7.13;59.96
70695;DHT22;58269;52.246;21.104;2022-12-10T06:17:45;7.14;59.91
70695;DHT22;58269;52.246;21.104;2022-12-10T06:19:47;7.12;59.75
70695;DHT22;58269;52.246;21.104;2022-12-10T06:21:48;7.12;59.85
70695;DHT22;58269;52.246;21.104;2022-12-10T06:23:49;7.13;59.66
70695;DHT22;58269;52.246;21.104;2022-12-10T06:25:52;7.10;59.76
70695;DHT22;58269;52.246;21.104;2022-12-10T06:27:53;7.17;59.96
70695;DHT22;58269;52.246;21.104;2022-12-10T06:29:54;7.20;59.77
70695;DHT22;58269;52.246;21.104;2022-12-10T06:31:55;7.17;59.64
70695;DHT22;58269;52.246;21.104;2022-12-10T06:33:57;7.17;59.64
70695;DHT22;58269;52.246;21.104;2022-12-10T06:35:58;7.17;59.70
70695;DHT22;58269;52.246;21.104;2022-12-10T06:38:00;7.20;59.73
70695;DHT22;58269;52.246;21.104;2022-12-10T06:40:01;7.23;59.79
70695;DHT22;58269;52.246;21.104;2022-12-10T06:42:03;7.19;59.60
70695;DHT22;58269;52.246;21.104;2022-12-10T06:44:07;7.17;59.64
70695;DHT22;58269;52.246;21.104;2022-12-10T06:46:11;7.17;59.52
70695;DHT22;58269;52.246;21.104;2022-12-10T06:48:13;7.12;59.50
70695;DHT22;58269;52.246;21.104;2022-12-10T06:50:14;7.12;59.49
70695;DHT22;58269;52.246;21.104;2022-12-10T06:52:15;7.13;59.49
70695;DHT22;58269;52.246;21.104;2022-12-10T06:54:16;7.12;59.50
70695;DHT22;58269;52.246;21.104;2022-12-10T06:56:18;7.13;59.48
70695;DHT22;58269;52.246;21.104;2022-12-10T06:58:19;7.10;59.48
70695;DHT22;58269;52.246;21.104;2022-12-10T07:00:21;7.12;59.54
70695;DHT22;58269;52.246;21.104;2022-12-10T07:02:22;7.13;59.55
70695;DHT22;58269;52.246;21.104;2022-12-10T07:04:24;7.07;59.55
70695;DHT22;58269;52.246;21.104;2022-12-10T07:06:26;7.04;59.63
70695;DHT22;58269;52.246;21.104;2022-12-10T07:08:29;7.03;59.70
70695;DHT22;58269;52.246;21.104;2022-12-10T07:10:30;7.00;59.68
70695;DHT22;58269;52.246;21.104;2022-12-10T07:12:31;6.98;59.81
70695;DHT22;58269;52.246;21.104;2022-12-10T07:14:33;6.93;59.78
70695;DHT22;58269;52.246;21.104;2022-12-10T07:16:34;6.95;59.88
70695;DHT22;58269;52.246;21.104;2022-12-10T07:18:35;6.95;59.92
70695;DHT22;58269;52.246;21.104;2022-12-10T07:20:36;6.89;59.87
70695;DHT22;58269;52.246;21.104;2022-12-10T07:22:37;6.82;59.92
70695;DHT22;58269;52.246;21.104;2022-12-10T07:24:40;6.82;59.95
70695;DHT22;58269;52.246;21.104;2022-12-10T07:26:42;6.81;59.99
70695;DHT22;58269;52.246;21.104;2022-12-10T07:28:44;6.82;60.04
70695;DHT22;58269;52.246;21.104;2022-12-10T07:30:45;6.78;60.06
70695;DHT22;58269;52.246;21.104;2022-12-10T07:32:46;6.75;60.17
70695;DHT22;58269;52.246;21.104;2022-12-10T07:34:47;6.75;60.22
70695;DHT22;58269;52.246;21.104;2022-12-10T07:36:49;6.78;60.27
70695;DHT22;58269;52.246;21.104;2022-12-10T07:38:51;6.81;60.24
70695;DHT22;58269;52.246;21.104;2022-12-10T07:40:52;6.83;60.25
70695;DHT22;58269;52.246;21.104;2022-12-10T07:42:53;6.86;60.04
70695;DHT22;58269;52.246;21.104;2022-12-10T07:44:55;6.88;60.02
70695;DHT22;58269;52.246;21.104;2022-12-10T07:46:56;6.91;60.05
70695;DHT22;58269;52.246;21.104;2022-12-10T07:49:00;6.95;60.32
70695;DHT22;58269;52.246;21.104;2022-12-10T07:51:02;7.03;60.29
70695;DHT22;58269;52.246;21.104;2022-12-10T07:53:03;7.04;60.02
70695;DHT22;58269;52.246;21.104;2022-12-10T07:55:05;7.04;59.91
70695;DHT22;58269;52.246;21.104;2022-12-10T07:57:06;7.07;59.98
70695;DHT22;58269;52.246;21.104;2022-12-10T07:59:08;7.06;59.86
70695;DHT22;58269;52.246;21.104;2022-12-10T08:01:12;7.10;59.97
70695;DHT22;58269;52.246;21.104;2022-12-10T08:03:13;7.17;59.97
70695;DHT22;58269;52.246;21.104;2022-12-10T08:05:15;7.13;59.81
70695;DHT22;58269;52.246;21.104;2022-12-10T08:07:16;7.13;59.80
70695;DHT22;58269;52.246;21.104;2022-12-10T08:09:17;7.14;59.86
70695;DHT22;58269;52.246;21.104;2022-12-10T08:11:20;7.14;60.04
70695;DHT22;58269;52.246;21.104;2022-12-10T08:13:21;7.20;59.95
70695;DHT22;58269;52.246;21.104;2022-12-10T08:15:23;7.17;59.89
70695;DHT22;58269;52.246;21.104;2022-12-10T08:17:24;7.17;59.89
70695;DHT22;58269;52.246;21.104;2022-12-10T08:19:25;7.22;59.91
70695;DHT22;58269;52.246;21.104;2022-12-10T08:21:28;7.20;60.08
70695;DHT22;58269;52.246;21.104;2022-12-10T08:23:30;7.29;60.22
70695;DHT22;58269;52.246;21.104;2022-12-10T08:25:31;7.31;59.94
70695;DHT22;58269;52.246;21.104;2022-12-10T08:27:32;7.27;59.76
70695;DHT22;58269;52.246;21.104;2022-12-10T08:29:34;7.24;59.85
70695;DHT22;58269;52.246;21.104;2022-12-10T08:31:35;7.27;59.87
70695;DHT22;58269;52.246;21.104;2022-12-10T08:33:36;7.30;59.84
70695;DHT22;58269;52.246;21.104;2022-12-10T08:35:38;7.33;59.95
70695;DHT22;58269;52.246;21.104;2022-12-10T08:37:42;7.37;59.99
70695;DHT22;58269;52.246;21.104;2022-12-10T08:39:43;7.41;59.96
70695;DHT22;58269;52.246;21.104;2022-12-10T08:41:45;7.44;59.80
70695;DHT22;58269;52.246;21.104;2022-12-10T08:43:48;7.44;59.80
70695;DHT22;58269;52.246;21.104;2022-12-10T08:45:49;7.44;59.76
70695;DHT22;58269;52.246;21.104;2022-12-10T08:47:52;7.44;59.71
70695;DHT22;58269;52.246;21.104;2022-12-10T08:49:53;7.47;59.75
70695;DHT22;58269;52.246;21.104;2022-12-10T08:51:54;7.47;59.69
70695;DHT22;58269;52.246;21.104;2022-12-10T08:53:56;7.47;59.67
70695;DHT22;58269;52.246;21.104;2022-12-10T08:55:57;7.50;59.79
70695;DHT22;58269;52.246;21.104;2022-12-10T08:57:58;7.51;59.75
70695;DHT22;58269;52.246;21.104;2022-12-10T09:00:00;7.54;59.72
70695;DHT22;58269;52.246;21.104;2022-12-10T09:02:01;7.53;59.67
70695;DHT22;58269;52.246;21.104;2022-12-10T09:04:03;7.53;59.64
70695;DHT22;58269;52.246;21.104;2022-12-10T09:06:09;7.55;59.79
70695;DHT22;58269;52.246;21.104;2022-12-10T09:08:11;7.61;59.89
70695;DHT22;58269;52.246;21.104;2022-12-10T09:10:13;7.62;59.66
70695;DHT22;58269;52.246;21.104;2022-12-10T09:12:14;7.59;59.59
70695;DHT22;58269;52.246;21.104;2022-12-10T09:14:15;7.57;59.69
70695;DHT22;58269;52.246;21.104;2022-12-10T09:16:17;7.61;59.73
70695;DHT22;58269;52.246;21.104;2022-12-10T09:18:18;7.62;59.76
70695;DHT22;58269;52.246;21.104;2022-12-10T09:20:20;7.69;59.85
70695;DHT22;58269;52.246;21.104;2022-12-10T09:22:21;7.71;59.85
70695;DHT22;58269;52.246;21.104;2022-12-10T09:24:22;7.72;59.62
70695;DHT22;58269;52.246;21.104;2022-12-10T09:26:24;7.71;59.57
70695;DHT22;58269;52.246;21.104;2022-12-10T09:28:25;7.71;59.50
70695;DHT22;58269;52.246;21.104;2022-12-10T09:30:27;7.68;59.49
70695;DHT22;58269;52.246;21.104;2022-12-10T09:32:28;7.72;59.70
70695;DHT22;58269;52.246;21.104;2022-12-10T09:34:29;7.72;59.55
70695;DHT22;58269;52.246;21.104;2022-12-10T09:36:30;7.71;59.45
70695;DHT22;58269;52.246;21.104;2022-12-10T09:38:33;7.69;59.40
70695;DHT22;58269;52.246;21.104;2022-12-10T09:40:45;7.45;57.92
70695;DHT22;58269;52.246;21.104;2022-12-10T09:43:09;6.91;58.29
70695;DHT22;58269;52.246;21.104;2022-12-10T09:45:26;6.35;57.63
70695;DHT22;58269;52.246;21.104;2022-12-10T09:52:24;5.32;59.94
70695;DHT22;58269;52.246;21.104;2022-12-10T09:54:41;5.22;61.03
70695;DHT22;58269;52.246;21.104;2022-12-10T09:56:43;5.41;61.37
70695;DHT22;58269;52.246;21.104;2022-12-10T09:58:44;5.24;61.23
70695;DHT22;58269;52.246;21.104;2022-12-10T10:00:49;5.28;63.72
70695;DHT22;58269;52.246;21.104;2022-12-10T10:02:51;5.68;65.03
70695;DHT22;58269;52.246;21.104;2022-12-10T10:07:19;6.25;64.75
70695;DHT22;58269;52.246;21.104;2022-12-10T10:09:20;6.48;64.57
70695;DHT22;58269;52.246;21.104;2022-12-10T10:11:24;6.64;64.27
70695;DHT22;58269;52.246;21.104;2022-12-10T10:15:52;6.89;63.25
70695;DHT22;58269;52.246;21.104;2022-12-10T10:17:54;6.95;62.96
70695;DHT22;58269;52.246;21.104;2022-12-10T10:19:57;7.03;63.08
70695;DHT22;58269;52.246;21.104;2022-12-10T10:21:58;7.19;63.09
70695;DHT22;58269;52.246;21.104;2022-12-10T10:24:01;7.31;62.68
70695;DHT22;58269;52.246;21.104;2022-12-10T10:26:02;7.34;62.10
70695;DHT22;58269;52.246;21.104;2022-12-10T10:28:04;7.33;61.71
70695;DHT22;58269;52.246;21.104;2022-12-10T10:30:12;7.33;61.67
70695;DHT22;58269;52.246;21.104;2022-12-10T10:32:22;7.34;61.55
70695;DHT22;58269;52.246;21.104;2022-12-10T10:34:24;7.40;61.57
70695;DHT22;58269;52.246;21.104;2022-12-10T10:36:33;7.45;61.55
70695;DHT22;58269;52.246;21.104;2022-12-10T10:38:35;7.51;61.32
70695;DHT22;58269;52.246;21.104;2022-12-10T10:40:42;7.53;61.20
70695;DHT22;58269;52.246;21.104;2022-12-10T10:42:44;7.55;61.35
70695;DHT22;58269;52.246;21.104;2022-12-10T10:44:46;7.58;61.12
70695;DHT22;58269;52.246;21.104;2022-12-10T10:46:50;7.58;60.93
70695;DHT22;58269;52.246;21.104;2022-12-10T10:48:51;7.66;61.16
70695;DHT22;58269;52.246;21.104;2022-12-10T10:50:55;7.74;61.12
70695;DHT22;58269;52.246;21.104;2022-12-10T10:52:56;7.75;60.90
70695;DHT22;58269;52.246;21.104;2022-12-10T10:54:58;7.78;60.64
70695;DHT22;58269;52.246;21.104;2022-12-10T10:57:25;7.78;60.58
70695;DHT22;58269;52.246;21.104;2022-12-10T10:59:34;7.80;60.47
70695;DHT22;58269;52.246;21.104;2022-12-10T11:01:48;7.82;60.45
70695;DHT22;58269;52.246;21.104;2022-12-10T11:03:56;7.84;60.38
70695;DHT22;58269;52.246;21.104;2022-12-10T11:05:58;7.84;60.30
70695;DHT22;58269;52.246;21.104;2022-12-10T11:08:06;7.88;60.39
70695;DHT22;58269;52.246;21.104;2022-12-10T11:10:19;7.88;60.29
70695;DHT22;58269;52.246;21.104;2022-12-10T11:14:40;7.94;60.04
70695;DHT22;58269;52.246;21.104;2022-12-10T11:16:44;7.94;60.02
70695;DHT22;58269;52.246;21.104;2022-12-10T11:21:09;7.94;59.98
70695;DHT22;58269;52.246;21.104;2022-12-10T11:23:10;7.95;59.99
70695;DHT22;58269;52.246;21.104;2022-12-10T11:25:13;7.96;60.02
70695;DHT22;58269;52.246;21.104;2022-12-10T11:27:45;7.96;59.89
70695;DHT22;58269;52.246;21.104;2022-12-10T11:34:18;7.94;59.75
70695;DHT22;58269;52.246;21.104;2022-12-10T11:38:53;7.98;59.87
70695;DHT22;58269;52.246;21.104;2022-12-10T11:41:02;7.96;59.72
70695;DHT22;58269;52.246;21.104;2022-12-10T11:50:57;8.05;60.03
70695;DHT22;58269;52.246;21.104;2022-12-10T11:53:32;8.09;59.93
70695;DHT22;58269;52.246;21.104;2022-12-10T11:55:53;8.19;59.85
70695;DHT22;58269;52.246;21.104;2022-12-10T12:00:22;7.81;57.40
70695;DHT22;58269;52.246;21.104;2022-12-10T12:09:21;5.96;58.84
70695;DHT22;58269;52.246;21.104;2022-12-10T12:11:34;5.62;59.84
70695;DHT22;58269;52.246;21.104;2022-12-10T12:13:39;5.29;60.75
70695;DHT22;58269;52.246;21.104;2022-12-10T12:15:45;5.22;61.92
70695;DHT22;58269;52.246;21.104;2022-12-10T12:17:50;5.62;64.81
70695;DHT22;58269;52.246;21.104;2022-12-10T12:19:54;6.06;65.13
70695;DHT22;58269;52.246;21.104;2022-12-10T12:22:06;6.38;64.86
70695;DHT22;58269;52.246;21.104;2022-12-10T12:26:15;6.88;64.32
70695;DHT22;58269;52.246;21.104;2022-12-10T12:28:38;7.09;63.97
70695;DHT22;58269;52.246;21.104;2022-12-10T12:30:36;7.24;63.34
70695;DHT22;58269;52.246;21.104;2022-12-10T12:33:08;7.35;63.02
70695;DHT22;58269;52.246;21.104;2022-12-10T12:35:27;7.51;62.17
70695;DHT22;58269;52.246;21.104;2022-12-10T12:37:30;7.62;62.10
70695;DHT22;58269;52.246;21.104;2022-12-10T12:39:42;7.71;61.82
70695;DHT22;58269;52.246;21.104;2022-12-10T12:44:03;7.82;60.68
70695;DHT22;58269;52.246;21.104;2022-12-10T12:46:09;7.81;60.36
70695;DHT22;58269;52.246;21.104;2022-12-10T12:48:21;7.75;60.02
70695;DHT22;58269;52.246;21.104;2022-12-10T12:52:52;7.74;59.94
70695;DHT22;58269;52.246;21.104;2022-12-10T12:54:56;7.75;59.99
70695;DHT22;58269;52.246;21.104;2022-12-10T12:57:04;7.78;59.86
70695;DHT22;58269;52.246;21.104;2022-12-10T12:59:20;7.78;59.92
70695;DHT22;58269;52.246;21.104;2022-12-10T13:01:32;7.81;59.82
70695;DHT22;58269;52.246;21.104;2022-12-10T13:03:39;7.82;59.79
70695;DHT22;58269;52.246;21.104;2022-12-10T13:05:40;7.81;59.69
70695;DHT22;58269;52.246;21.104;2022-12-10T13:07:41;7.81;59.64
70695;DHT22;58269;52.246;21.104;2022-12-10T13:09:48;7.80;59.64
70695;DHT22;58269;52.246;21.104;2022-12-10T13:18:44;7.84;59.59
70695;DHT22;58269;52.246;21.104;2022-12-10T13:20:51;7.82;59.58
70695;DHT22;58269;52.246;21.104;2022-12-10T13:25:16;7.81;59.50
70695;DHT22;58269;52.246;21.104;2022-12-10T13:27:29;7.81;59.53
70695;DHT22;58269;52.246;21.104;2022-12-10T13:29:30;7.81;59.47
70695;DHT22;58269;52.246;21.104;2022-12-10T13:31:35;7.71;59.08
70695;DHT22;58269;52.246;21.104;2022-12-10T13:36:10;6.61;57.43
70695;DHT22;58269;52.246;21.104;2022-12-10T13:38:23;6.24;57.50
70695;DHT22;58269;52.246;21.104;2022-12-10T13:42:58;5.55;60.24
70695;DHT22;58269;52.246;21.104;2022-12-10T13:52:03;5.53;63.82
70695;DHT22;58269;52.246;21.104;2022-12-10T13:54:19;5.90;64.35
70695;DHT22;58269;52.246;21.104;2022-12-10T13:56:38;6.16;64.32
70695;DHT22;58269;52.246;21.104;2022-12-10T14:00:58;6.53;63.64
70695;DHT22;58269;52.246;21.104;2022-12-10T14:05:52;6.71;63.09
70695;DHT22;58269;52.246;21.104;2022-12-10T14:07:52;6.85;62.87
70695;DHT22;58269;52.246;21.104;2022-12-10T14:09:56;6.89;62.57
70695;DHT22;58269;52.246;21.104;2022-12-10T14:14:11;7.03;62.24
70695;DHT22;58269;52.246;21.104;2022-12-10T14:16:14;7.12;62.04
70695;DHT22;58269;52.246;21.104;2022-12-10T14:18:16;7.16;61.75
70695;DHT22;58269;52.246;21.104;2022-12-10T14:20:19;7.17;61.31
70695;DHT22;58269;52.246;21.104;2022-12-10T14:24:36;7.24;61.18
70695;DHT22;58269;52.246;21.104;2022-12-10T14:26:39;7.24;61.12
70695;DHT22;58269;52.246;21.104;2022-12-10T14:28:42;7.24;60.98
70695;DHT22;58269;52.246;21.104;2022-12-10T14:30:46;7.30;60.97
70695;DHT22;58269;52.246;21.104;2022-12-10T14:32:49;7.33;60.94